Terminal Aerodrome Forecast
Issued by NWS

Home | Current Version | Previous Version | Text Only | Print | Product List | Glossary On
Versions: 1 2 3 4 5 6 7 8 9 10 11 12 13 14 15 16
208
FTUS43 KILX 240520
TAFDEC
TAF
KDEC 240520Z 2406/2506 04005KT P6SM OVC010
      TEMPO 2406/2409 4SM -SHRA BR OVC008
     FM241800 01010KT P6SM OVC020
     FM242100 01010KT P6SM OVC035
     FM250000 36005KT P6SM BKN120=

USA.gov is the U.S. government's official web portal to all federal, state and local government web resources and services.